Pioneer Knutsen — LMIK — position and weather

sailwx.info

Track history (hours):
 
Tides and Currents Weather Stations Pressure Air Temp Water Temp Dewpoint Dewpoint Depression Visibility Wind Speed Wind Dir Waves Ship Positions

Pioneer Knutsen

Last reported at 2016-Feb-14 13:30 UTC. Time now 2016-Feb-14 20:57 UTC.
Position N 65°18' E 011°59'.

Length 70 m; draft 3.6 m.

Type: Ship. MMSI: 259393000.

Date/timePositionNaut miles runAvg speedWind from/ knotsBaromVisibWave heightAir tempDewpointWater temp
2016-Feb-14 13:30N 65°18' E 011°59'1212.4
2016-Feb-14 12:33N 65°07' E 011°49'1212.0
2016-Feb-14 11:33N 64°57' E 011°31'1212.2
2016-Feb-14 10:33N 64°49' E 011°10'8011.5
2016-Feb-14 03:33N 63°42' E 009°30'1111.5
2016-Feb-14 02:33N 63°32' E 009°15'242 9.2
2016-Feb-13 00:16N 59°56' E 005°29'912.0
2016-Feb-12 23:33N 59°47' E 005°34'1111.3
2016-Feb-12 22:33N 59°39' E 005°20'2310.9
2016-Feb-12 20:26N 59°15' E 005°21'910.4
2016-Feb-12 19:33N 59°07' E 005°28'1110.7
2016-Feb-12 18:34N 58°57' E 005°33'2 1.6
2016-Feb-12 17:33N 58°55' E 005°35'0 0.0
2016-Feb-12 16:33N 58°55' E 005°35'0 0.0
2016-Feb-12 15:32N 58°55' E 005°35'0 0.0
2016-Feb-12 14:32N 58°55' E 005°35'0 0.0
2016-Feb-12 13:32N 58°55' E 005°35'0 0.0
2016-Feb-12 12:31N 58°55' E 005°35'0 0.0
2016-Feb-12 11:31N 58°55' E 005°35'4 4.4
2016-Feb-12 10:33N 58°60' E 005°33'3311.0
2016-Feb-12 07:33N 59°31' E 005°12'1312.9
2016-Feb-12 06:32N 59°42' E 005°26'249 9.6
2016-Feb-11 04:30N 63°29' E 008°60'1313.6
2016-Feb-11 03:34N 63°35' E 009°25'8211.6
2016-Feb-10 20:33N 64°45' E 011°01'1212.3
2016-Feb-10 19:33N 64°54' E 011°21'1212.4
2016-Feb-10 18:33N 65°02' E 011°43'1312.8
2016-Feb-10 17:31N 65°15' E 011°55'8 0.5
2016-Feb-10 02:25N 65°22' E 012°04'1011.8
2016-Feb-10 01:33N 65°13' E 011°53'1212.0
2016-Feb-10 00:33N 65°02' E 011°42'1212.3
2016-Feb-09 23:33N 64°54' E 011°20'84 7.5
2016-Feb-09 12:23N 63°44' E 009°32'1411.7
2016-Feb-09 11:13N 63°32' E 009°15'  
2016-Feb-07 06:22N 63°29' E 009°00'911.7
2016-Feb-07 05:33N 63°34' E 009°19'1111.2
2016-Feb-07 04:33N 63°43' E 009°32'6910.7
2016-Feb-06 22:09N 64°42' E 010°51'711.0
2016-Feb-06 21:33N 64°47' E 011°03'1110.8
2016-Feb-06 20:33N 64°54' E 011°21'1111.4
2016-Feb-06 19:33N 65°02' E 011°42'1211.7
2016-Feb-06 18:33N 65°12' E 011°53'10 0.6
2016-Feb-06 00:28N 65°22' E 012°04'9 9.7
2016-Feb-05 23:33N 65°14' E 011°54'10 9.6
2016-Feb-05 22:33N 65°05' E 011°46'10 9.6
2016-Feb-05 21:33N 64°57' E 011°31'10 9.6
2016-Feb-05 20:33N 64°51' E 011°14'8111.2
2016-Feb-05 13:22N 63°44' E 009°32'1411.6
2016-Feb-05 12:12N 63°32' E 009°16'  
Track history (hours):
 
Tides and Currents Weather Stations Pressure Air Temp Water Temp Dewpoint Dewpoint Depression Visibility Wind Speed Wind Dir Waves Ship Positions

Pioneer Knutsen

Last reported at 2016-Feb-14 13:30 UTC. Time now 2016-Feb-14 20:57 UTC.
Position N 65°18' E 011°59'.

Length 70 m; draft 3.6 m.

Type: Ship. MMSI: 259393000.

Date/timePositionNaut miles runAvg speedWind from/ knotsBaromVisibWave heightAir tempDewpointWater temp
2016-Feb-14 13:30N 65°18' E 011°59'1212.4
2016-Feb-14 12:33N 65°07' E 011°49'1212.0
2016-Feb-14 11:33N 64°57' E 011°31'1212.2
2016-Feb-14 10:33N 64°49' E 011°10'8011.5
2016-Feb-14 03:33N 63°42' E 009°30'1111.5
2016-Feb-14 02:33N 63°32' E 009°15'242 9.2
2016-Feb-13 00:16N 59°56' E 005°29'912.0
2016-Feb-12 23:33N 59°47' E 005°34'1111.3
2016-Feb-12 22:33N 59°39' E 005°20'2310.9
2016-Feb-12 20:26N 59°15' E 005°21'910.4
2016-Feb-12 19:33N 59°07' E 005°28'1110.7
2016-Feb-12 18:34N 58°57' E 005°33'2 1.6
2016-Feb-12 17:33N 58°55' E 005°35'0 0.0
2016-Feb-12 16:33N 58°55' E 005°35'0 0.0
2016-Feb-12 15:32N 58°55' E 005°35'0 0.0
2016-Feb-12 14:32N 58°55' E 005°35'0 0.0
2016-Feb-12 13:32N 58°55' E 005°35'0 0.0
2016-Feb-12 12:31N 58°55' E 005°35'0 0.0
2016-Feb-12 11:31N 58°55' E 005°35'4 4.4
2016-Feb-12 10:33N 58°60' E 005°33'3311.0
2016-Feb-12 07:33N 59°31' E 005°12'1312.9
2016-Feb-12 06:32N 59°42' E 005°26'249 9.6
2016-Feb-11 04:30N 63°29' E 008°60'1313.6
2016-Feb-11 03:34N 63°35' E 009°25'8211.6
2016-Feb-10 20:33N 64°45' E 011°01'1212.3
2016-Feb-10 19:33N 64°54' E 011°21'1212.4
2016-Feb-10 18:33N 65°02' E 011°43'1312.8
2016-Feb-10 17:31N 65°15' E 011°55'8 0.5
2016-Feb-10 02:25N 65°22' E 012°04'1011.8
2016-Feb-10 01:33N 65°13' E 011°53'1212.0
2016-Feb-10 00:33N 65°02' E 011°42'1212.3
2016-Feb-09 23:33N 64°54' E 011°20'84 7.5
2016-Feb-09 12:23N 63°44' E 009°32'1411.7
2016-Feb-09 11:13N 63°32' E 009°15'  
2016-Feb-07 06:22N 63°29' E 009°00'911.7
2016-Feb-07 05:33N 63°34' E 009°19'1111.2
2016-Feb-07 04:33N 63°43' E 009°32'6910.7
2016-Feb-06 22:09N 64°42' E 010°51'711.0
2016-Feb-06 21:33N 64°47' E 011°03'1110.8
2016-Feb-06 20:33N 64°54' E 011°21'1111.4
2016-Feb-06 19:33N 65°02' E 011°42'1211.7
2016-Feb-06 18:33N 65°12' E 011°53'10 0.6
2016-Feb-06 00:28N 65°22' E 012°04'9 9.7
2016-Feb-05 23:33N 65°14' E 011°54'10 9.6
2016-Feb-05 22:33N 65°05' E 011°46'10 9.6
2016-Feb-05 21:33N 64°57' E 011°31'10 9.6
2016-Feb-05 20:33N 64°51' E 011°14'8111.2
2016-Feb-05 13:22N 63°44' E 009°32'1411.6
2016-Feb-05 12:12N 63°32' E 009°16'  

Dump ship's entire track history